Rickmers Dalian — V7FS3 — position and weather

sailwx.info

Track history (hours):
 
Tides and Currents Weather Stations Pressure Air Temp Water Temp Dewpoint Dewpoint Depression Visibility Wind Speed Wind Dir Waves Ship Positions

Rickmers Dalian

Last reported at 2014-Sep-30 00:30 UTC. Time now 2014-Oct-01 14:18 UTC.
Position N 34°34' W 075°47'.

Length 193 m; beam 27.8 m; draft 11.2 m.

Type: Ship. MMSI: 538090156.

Date/timePositionNaut miles runAvg speedWind from/ knotsBaromVisibWave heightAir tempDewpointWater temp
2014-Sep-30 00:30N 34°34' W 075°47'1212.2
2014-Sep-29 23:33N 34°27' W 075°59'1212.2
2014-Sep-29 22:33N 34°22' W 076°12'1212.1
2014-Sep-29 21:33N 34°20' W 076°26'1411.7
2014-Sep-29 20:19N 34°30' W 076°39'912.4
2014-Sep-29 19:33N 34°39' W 076°41'4 4.1
2014-Sep-29 18:33N 34°43' W 076°42'0 0.0
2014-Sep-29 17:33N 34°43' W 076°42'0 0.0
2014-Sep-29 16:33N 34°43' W 076°42'0 0.0
2014-Sep-29 15:33N 34°43' W 076°42'0 0.0
2014-Sep-29 14:33N 34°43' W 076°42'0 0.0
2014-Sep-29 13:33N 34°43' W 076°42'1 0.6
2014-Sep-29 12:33N 34°43' W 076°41'7 7.4
2014-Sep-29 11:33N 34°35' W 076°41'6 6.1
2014-Sep-29 10:33N 34°29' W 076°44'6 6.0
2014-Sep-29 09:33N 34°24' W 076°46'5 5.1
2014-Sep-29 08:33N 34°20' W 076°50'3 3.1
2014-Sep-29 07:33N 34°16' W 076°49'120 7.7
2014-Sep-28 16:00N 32°42' W 078°18'142 8.7 100 / 181018.0 5.4 0.525.023.528.0
2014-Sep-27 23:33N 32°06' W 081°01'3 2.7
2014-Sep-27 22:31N 32°05' W 081°04'0 0.0
2014-Sep-27 21:31N 32°05' W 081°04'0 0.0
2014-Sep-27 20:31N 32°05' W 081°04'0 0.0
2014-Sep-27 19:31N 32°05' W 081°04'0 0.0
2014-Sep-27 18:31N 32°05' W 081°04'0 0.0
2014-Sep-27 17:31N 32°05' W 081°04'0 0.0
2014-Sep-27 16:28N 32°05' W 081°04'0 0.0
2014-Sep-27 15:31N 32°05' W 081°04'0 0.0
2014-Sep-27 14:31N 32°05' W 081°04'0 0.0
2014-Sep-27 13:28N 32°05' W 081°04'0 0.0
2014-Sep-27 12:19N 32°05' W 081°04'0 0.0
2014-Sep-27 11:22N 32°05' W 081°04'0 0.0
2014-Sep-27 10:31N 32°05' W 081°04'0 0.0
2014-Sep-27 09:28N 32°05' W 081°04'0 0.0
2014-Sep-27 08:28N 32°05' W 081°04'0 0.0
2014-Sep-27 07:31N 32°05' W 081°04'0 0.0
2014-Sep-27 06:31N 32°05' W 081°04'0 0.0
2014-Sep-27 05:31N 32°05' W 081°04'0 0.0
2014-Sep-27 04:28N 32°05' W 081°04'0 0.0
2014-Sep-27 03:31N 32°05' W 081°04'0 0.0
2014-Sep-27 02:31N 32°05' W 081°04'0 0.0
2014-Sep-27 01:25N 32°05' W 081°04'0 0.0
2014-Sep-27 00:31N 32°05' W 081°04'0 0.0
2014-Sep-26 18:04N 32°05' W 081°04'0 0.0
2014-Sep-26 17:31N 32°05' W 081°04'0 0.0
2014-Sep-26 16:31N 32°05' W 081°04'0 0.0
2014-Sep-26 15:25N 32°05' W 081°04'0 0.0
2014-Sep-26 14:31N 32°05' W 081°04'0 0.0
2014-Sep-26 13:31N 32°05' W 081°04'0 0.0
2014-Sep-26 12:04N 32°05' W 081°04'0 0.0
2014-Sep-26 09:19N 32°05' W 081°04'0 0.0
2014-Sep-26 07:28N 32°05' W 081°04'0 0.0
2014-Sep-26 06:31N 32°05' W 081°04'0 0.0
2014-Sep-26 05:25N 32°05' W 081°04'0 0.0
2014-Sep-26 04:04N 32°05' W 081°04'0 0.0
2014-Sep-26 03:31N 32°05' W 081°04'0 0.0
2014-Sep-26 01:19N 32°05' W 081°04'0 0.0
2014-Sep-26 00:31N 32°05' W 081°04'0 0.0
2014-Sep-25 23:31N 32°05' W 081°04'0 0.0
2014-Sep-25 22:28N 32°05' W 081°04'0 0.0
2014-Sep-25 20:28N 32°05' W 081°04'0 0.0
2014-Sep-25 19:28N 32°05' W 081°04'3 3.3
2014-Sep-25 18:29N 32°06' W 081°01'3313.4
2014-Sep-25 16:00N 31°54' W 080°24'25510.2 010 / 171020.0 5.4 0.522.020.527.0
2014-Sep-24 15:00N 27°42' W 079°36'3916.0 160 / 151018.0 5.4 29.026.230.0
2014-Sep-24 12:33N 27°03' W 079°44'2115.3
2014-Sep-24 11:12N 26°43' W 079°45'1015.4
2014-Sep-24 10:33N 26°33' W 079°45'1515.5
2014-Sep-24 09:33N 26°17' W 079°47'1615.6
2014-Sep-24 08:33N 26°02' W 079°49'1615.8
2014-Sep-24 07:33N 25°46' W 079°50'1515.2
2014-Sep-24 06:33N 25°31' W 079°54'18411.9
2014-Sep-23 15:00N 24°06' W 082°54'31813.2 090 / 101016.010.8 29.024.829.0
2014-Sep-22 15:00N 25°54' W 088°24'26211.9 200 / 101015.0 5.4 29.026.230.0
2014-Sep-21 17:00N 28°00' W 092°42'14111.4 090 / 211016.010.8 29.024.829.0
2014-Sep-21 04:33N 29°26' W 094°50'1413.5
2014-Sep-21 03:32N 29°38' W 094°58'9 9.1
2014-Sep-21 02:33N 29°45' W 095°04'6 5.6
2014-Sep-21 01:32N 29°45' W 095°11'5 5.0
2014-Sep-21 00:31N 29°44' W 095°16'1 0.2
2014-Sep-20 21:31N 29°44' W 095°17'0 0.0
2014-Sep-20 20:19N 29°44' W 095°17'0 0.1
2014-Sep-20 16:33N 29°44' W 095°16'4 3.8
2014-Sep-20 15:33N 29°44' W 095°12'5 5.2
2014-Sep-20 14:33N 29°45' W 095°06'6 6.1
2014-Sep-20 13:33N 29°42' W 094°60'1312.5
2014-Sep-20 12:33N 29°31' W 094°53'  
Track history (hours):
 
Tides and Currents Weather Stations Pressure Air Temp Water Temp Dewpoint Dewpoint Depression Visibility Wind Speed Wind Dir Waves Ship Positions

Rickmers Dalian

Last reported at 2014-Sep-30 00:30 UTC. Time now 2014-Oct-01 14:18 UTC.
Position N 34°34' W 075°47'.

Length 193 m; beam 27.8 m; draft 11.2 m.

Type: Ship. MMSI: 538090156.

Date/timePositionNaut miles runAvg speedWind from/ knotsBaromVisibWave heightAir tempDewpointWater temp
2014-Sep-30 00:30N 34°34' W 075°47'1212.2
2014-Sep-29 23:33N 34°27' W 075°59'1212.2
2014-Sep-29 22:33N 34°22' W 076°12'1212.1
2014-Sep-29 21:33N 34°20' W 076°26'1411.7
2014-Sep-29 20:19N 34°30' W 076°39'912.4
2014-Sep-29 19:33N 34°39' W 076°41'4 4.1
2014-Sep-29 18:33N 34°43' W 076°42'0 0.0
2014-Sep-29 17:33N 34°43' W 076°42'0 0.0
2014-Sep-29 16:33N 34°43' W 076°42'0 0.0
2014-Sep-29 15:33N 34°43' W 076°42'0 0.0
2014-Sep-29 14:33N 34°43' W 076°42'0 0.0
2014-Sep-29 13:33N 34°43' W 076°42'1 0.6
2014-Sep-29 12:33N 34°43' W 076°41'7 7.4
2014-Sep-29 11:33N 34°35' W 076°41'6 6.1
2014-Sep-29 10:33N 34°29' W 076°44'6 6.0
2014-Sep-29 09:33N 34°24' W 076°46'5 5.1
2014-Sep-29 08:33N 34°20' W 076°50'3 3.1
2014-Sep-29 07:33N 34°16' W 076°49'120 7.7
2014-Sep-28 16:00N 32°42' W 078°18'142 8.7 100 / 181018.0 5.4 0.525.023.528.0
2014-Sep-27 23:33N 32°06' W 081°01'3 2.7
2014-Sep-27 22:31N 32°05' W 081°04'0 0.0
2014-Sep-27 21:31N 32°05' W 081°04'0 0.0
2014-Sep-27 20:31N 32°05' W 081°04'0 0.0
2014-Sep-27 19:31N 32°05' W 081°04'0 0.0
2014-Sep-27 18:31N 32°05' W 081°04'0 0.0
2014-Sep-27 17:31N 32°05' W 081°04'0 0.0
2014-Sep-27 16:28N 32°05' W 081°04'0 0.0
2014-Sep-27 15:31N 32°05' W 081°04'0 0.0
2014-Sep-27 14:31N 32°05' W 081°04'0 0.0
2014-Sep-27 13:28N 32°05' W 081°04'0 0.0
2014-Sep-27 12:19N 32°05' W 081°04'0 0.0
2014-Sep-27 11:22N 32°05' W 081°04'0 0.0
2014-Sep-27 10:31N 32°05' W 081°04'0 0.0
2014-Sep-27 09:28N 32°05' W 081°04'0 0.0
2014-Sep-27 08:28N 32°05' W 081°04'0 0.0
2014-Sep-27 07:31N 32°05' W 081°04'0 0.0
2014-Sep-27 06:31N 32°05' W 081°04'0 0.0
2014-Sep-27 05:31N 32°05' W 081°04'0 0.0
2014-Sep-27 04:28N 32°05' W 081°04'0 0.0
2014-Sep-27 03:31N 32°05' W 081°04'0 0.0
2014-Sep-27 02:31N 32°05' W 081°04'0 0.0
2014-Sep-27 01:25N 32°05' W 081°04'0 0.0
2014-Sep-27 00:31N 32°05' W 081°04'0 0.0
2014-Sep-26 18:04N 32°05' W 081°04'0 0.0
2014-Sep-26 17:31N 32°05' W 081°04'0 0.0
2014-Sep-26 16:31N 32°05' W 081°04'0 0.0
2014-Sep-26 15:25N 32°05' W 081°04'0 0.0
2014-Sep-26 14:31N 32°05' W 081°04'0 0.0
2014-Sep-26 13:31N 32°05' W 081°04'0 0.0
2014-Sep-26 12:04N 32°05' W 081°04'0 0.0
2014-Sep-26 09:19N 32°05' W 081°04'0 0.0
2014-Sep-26 07:28N 32°05' W 081°04'0 0.0
2014-Sep-26 06:31N 32°05' W 081°04'0 0.0
2014-Sep-26 05:25N 32°05' W 081°04'0 0.0
2014-Sep-26 04:04N 32°05' W 081°04'0 0.0
2014-Sep-26 03:31N 32°05' W 081°04'0 0.0
2014-Sep-26 01:19N 32°05' W 081°04'0 0.0
2014-Sep-26 00:31N 32°05' W 081°04'0 0.0
2014-Sep-25 23:31N 32°05' W 081°04'0 0.0
2014-Sep-25 22:28N 32°05' W 081°04'0 0.0
2014-Sep-25 20:28N 32°05' W 081°04'0 0.0
2014-Sep-25 19:28N 32°05' W 081°04'3 3.3
2014-Sep-25 18:29N 32°06' W 081°01'3313.4
2014-Sep-25 16:00N 31°54' W 080°24'25510.2 010 / 171020.0 5.4 0.522.020.527.0
2014-Sep-24 15:00N 27°42' W 079°36'3916.0 160 / 151018.0 5.4 29.026.230.0
2014-Sep-24 12:33N 27°03' W 079°44'2115.3
2014-Sep-24 11:12N 26°43' W 079°45'1015.4
2014-Sep-24 10:33N 26°33' W 079°45'1515.5
2014-Sep-24 09:33N 26°17' W 079°47'1615.6
2014-Sep-24 08:33N 26°02' W 079°49'1615.8
2014-Sep-24 07:33N 25°46' W 079°50'1515.2
2014-Sep-24 06:33N 25°31' W 079°54'18411.9
2014-Sep-23 15:00N 24°06' W 082°54'31813.2 090 / 101016.010.8 29.024.829.0
2014-Sep-22 15:00N 25°54' W 088°24'26211.9 200 / 101015.0 5.4 29.026.230.0
2014-Sep-21 17:00N 28°00' W 092°42'14111.4 090 / 211016.010.8 29.024.829.0
2014-Sep-21 04:33N 29°26' W 094°50'1413.5
2014-Sep-21 03:32N 29°38' W 094°58'9 9.1
2014-Sep-21 02:33N 29°45' W 095°04'6 5.6
2014-Sep-21 01:32N 29°45' W 095°11'5 5.0
2014-Sep-21 00:31N 29°44' W 095°16'1 0.2
2014-Sep-20 21:31N 29°44' W 095°17'0 0.0
2014-Sep-20 20:19N 29°44' W 095°17'0 0.1
2014-Sep-20 16:33N 29°44' W 095°16'4 3.8
2014-Sep-20 15:33N 29°44' W 095°12'5 5.2
2014-Sep-20 14:33N 29°45' W 095°06'6 6.1
2014-Sep-20 13:33N 29°42' W 094°60'1312.5
2014-Sep-20 12:33N 29°31' W 094°53'  

Dump ship's entire track history